Bison, SD (57620)

8:12 AM MDT on May 24, 2015 (GMT -0600)
Hettinger Municipal | | Change Station
CLOSE
Current Station
Airport
Location: Hettinger,
Elevation: 2703 ft
Nearby Weather Stations

Elev 2703 ft 46.01 °N, 102.66 °W | Updated 6 minutes ago

Overcast
Overcast
53 °F
Feels Like 53 °F
N
10
Wind Variable Wind from ENE

Today
High -- | Low -- °F
--% Chance of Precip.
Yesterday
High -- | Low -- °F
Precip. -- in
5:10 AM 8:23 PM
Waxing Crescent, 39% visible
Pressure 30.04 in
Visibility 8.0 miles
Clouds Mostly Cloudy 600 ft
Mostly Cloudy 2700 ft
Overcast 7000 ft
Dew Point 50 °F
Humidity 89%
Rainfall 0.00 in
Snow Depth Not available.
UV 1 out of 12
Pollen 2.30 out of 12
Air Quality Not available.
Flu Activity Sporadic
SPECI KHEI 241406Z AUTO 07009KT 8SM BKN006 BKN027 OVC070 12/10 A3004 RMK AO2 T01170100

More Conditions Fewer Conditions

Pressure 30.04 in
Visibility 8.0 miles
Clouds Mostly Cloudy 600 ft
Mostly Cloudy 2700 ft
Overcast 7000 ft
Dew Point 50 °F
Humidity 89%
Rainfall 0.00 in
Snow Depth Not available.
UV 1 out of 12
Pollen 2.30 out of 12
Air Quality Not available.
Flu Activity Sporadic
SPECI KHEI 241406Z AUTO 07009KT 8SM BKN006 BKN027 OVC070 12/10 A3004 RMK AO2 T01170100

More Conditions Fewer Conditions

10-Day Weather Forecast

Almanac

Astronomy

May. 24, 2015 Rise Set
Actual Time
Civil Twilight
Nautical Twilight
Astronomical Twilight
Moon
Length of Visible Light
Length of Day
Tomorrow will be .
, % of the Moon is Illuminated

Today's Extremes

State Highs State Lows

Community

WunderPhotos

Upload Photos

1,823,745 photos uploaded!

WunderBlogs® & News

Nearby

Air Quality

  Air Quality AQ Index Pollutant
Not available.

Snow Depth

Station Depth Elevation

Earthquake Activity

City Distance Mag. Time & Date
Minimum magnitude displayed is 2.5.

Coastal Water Temperatures

Place Temperature

Stations

Nearby Weather Stations

Station Location Temp. Windchill Dew Point Humidity Wind Precip. Elev Updated Type